Terminal Aerodrome Forecast
Issued by NWS

Home | Current Version | Previous Version | Text Only | Print | Product List | Glossary On
Versions: 1 2 3 4 5 6 7 8 9 10 11 12 13 14 15 16 17 18 19
645
FTUS42 KFFC 162325
TAFFTY
TAF
KFTY 162325Z 1700/1724 26005KT P6SM VCSH SCT040 SCT250
     FM170100 25003KT P6SM FEW050 SCT250
     FM170500 26003KT P6SM SCT250
     FM171400 27004KT P6SM SCT025 SCT200
     FM172000 26006KT P6SM SCT060 BKN120 PROB30 1720/1724 4SM -TSRA
      BKN050CB=

USA.gov is the U.S. government's official web portal to all federal, state and local government web resources and services.